sensor_id;sensor_type;location;lat;lon;timestamp;P1;durP1;ratioP1;P2;durP2;ratioP2
3543;SDS011;1786;52.870;9.578;2023-02-21T00:00:29;18.27;;;14.33;;
3543;SDS011;1786;52.870;9.578;2023-02-21T00:03:14;20.83;;;15.83;;
3543;SDS011;1786;52.870;9.578;2023-02-21T00:05:59;20.67;;;16.13;;
3543;SDS011;1786;52.870;9.578;2023-02-21T00:08:45;16.63;;;14.93;;
3543;SDS011;1786;52.870;9.578;2023-02-21T00:11:30;26.43;;;16.60;;
3543;SDS011;1786;52.870;9.578;2023-02-21T00:14:16;21.13;;;14.90;;
3543;SDS011;1786;52.870;9.578;2023-02-21T00:17:01;24.03;;;15.87;;
3543;SDS011;1786;52.870;9.578;2023-02-21T00:19:46;25.20;;;16.87;;
3543;SDS011;1786;52.870;9.578;2023-02-21T00:22:31;30.40;;;17.20;;
3543;SDS011;1786;52.870;9.578;2023-02-21T00:25:16;20.93;;;16.40;;
3543;SDS011;1786;52.870;9.578;2023-02-21T00:28:02;19.30;;;16.50;;
3543;SDS011;1786;52.870;9.578;2023-02-21T00:30:47;19.93;;;16.90;;
3543;SDS011;1786;52.870;9.578;2023-02-21T00:33:36;21.83;;;16.40;;
3543;SDS011;1786;52.870;9.578;2023-02-21T00:36:21;23.87;;;17.17;;
3543;SDS011;1786;52.870;9.578;2023-02-21T00:39:07;22.27;;;18.20;;
3543;SDS011;1786;52.870;9.578;2023-02-21T00:41:52;27.97;;;18.60;;
3543;SDS011;1786;52.870;9.578;2023-02-21T00:44:37;28.60;;;19.00;;
3543;SDS011;1786;52.870;9.578;2023-02-21T00:47:22;24.43;;;18.77;;
3543;SDS011;1786;52.870;9.578;2023-02-21T00:50:08;23.97;;;18.20;;
3543;SDS011;1786;52.870;9.578;2023-02-21T00:52:53;28.93;;;20.00;;
3543;SDS011;1786;52.870;9.578;2023-02-21T00:55:39;31.00;;;20.90;;
3543;SDS011;1786;52.870;9.578;2023-02-21T00:58:24;31.77;;;23.90;;
3543;SDS011;1786;52.870;9.578;2023-02-21T01:01:09;41.40;;;24.10;;
3543;SDS011;1786;52.870;9.578;2023-02-21T01:03:56;37.50;;;24.33;;
3543;SDS011;1786;52.870;9.578;2023-02-21T01:06:41;34.00;;;24.27;;
3543;SDS011;1786;52.870;9.578;2023-02-21T01:09:26;36.20;;;26.07;;
3543;SDS011;1786;52.870;9.578;2023-02-21T01:12:12;37.73;;;25.43;;
3543;SDS011;1786;52.870;9.578;2023-02-21T01:14:57;31.80;;;25.20;;
3543;SDS011;1786;52.870;9.578;2023-02-21T01:17:42;33.27;;;24.63;;
3543;SDS011;1786;52.870;9.578;2023-02-21T01:20:28;38.53;;;25.43;;
3543;SDS011;1786;52.870;9.578;2023-02-21T01:23:13;36.43;;;25.30;;
3543;SDS011;1786;52.870;9.578;2023-02-21T01:25:58;31.57;;;24.37;;
3543;SDS011;1786;52.870;9.578;2023-02-21T01:28:43;39.30;;;26.10;;
3543;SDS011;1786;52.870;9.578;2023-02-21T01:31:31;29.83;;;23.00;;
3543;SDS011;1786;52.870;9.578;2023-02-21T01:34:16;37.43;;;24.63;;
3543;SDS011;1786;52.870;9.578;2023-02-21T01:37:01;31.37;;;23.07;;
3543;SDS011;1786;52.870;9.578;2023-02-21T01:39:48;35.60;;;24.83;;
3543;SDS011;1786;52.870;9.578;2023-02-21T01:42:33;27.43;;;21.97;;
3543;SDS011;1786;52.870;9.578;2023-02-21T01:48:07;29.03;;;23.47;;
3543;SDS011;1786;52.870;9.578;2023-02-21T01:50:55;31.30;;;25.20;;
3543;SDS011;1786;52.870;9.578;2023-02-21T01:53:42;32.17;;;23.60;;
3543;SDS011;1786;52.870;9.578;2023-02-21T01:56:28;32.03;;;22.53;;
3543;SDS011;1786;52.870;9.578;2023-02-21T01:59:13;32.53;;;23.87;;
3543;SDS011;1786;52.870;9.578;2023-02-21T02:02:07;29.97;;;23.17;;
3543;SDS011;1786;52.870;9.578;2023-02-21T02:04:53;30.17;;;22.17;;
3543;SDS011;1786;52.870;9.578;2023-02-21T02:07:39;31.13;;;21.33;;
3543;SDS011;1786;52.870;9.578;2023-02-21T02:10:25;29.17;;;22.07;;
3543;SDS011;1786;52.870;9.578;2023-02-21T02:37:17;28.33;;;21.73;;
3543;SDS011;1786;52.870;9.578;2023-02-21T02:40:09;27.20;;;21.60;;
3543;SDS011;1786;52.870;9.578;2023-02-21T02:42:46;29.07;;;21.43;;
3543;SDS011;1786;52.870;9.578;2023-02-21T02:45:17;26.47;;;20.17;;
3543;SDS011;1786;52.870;9.578;2023-02-21T02:47:48;31.90;;;21.27;;
3543;SDS011;1786;52.870;9.578;2023-02-21T02:50:17;24.43;;;20.70;;
3543;SDS011;1786;52.870;9.578;2023-02-21T02:52:48;26.93;;;20.77;;
3543;SDS011;1786;52.870;9.578;2023-02-21T02:55:21;27.13;;;21.07;;
3543;SDS011;1786;52.870;9.578;2023-02-21T02:57:49;34.07;;;21.50;;
3543;SDS011;1786;52.870;9.578;2023-02-21T03:00:17;28.03;;;21.53;;
3543;SDS011;1786;52.870;9.578;2023-02-21T03:05:36;30.33;;;20.40;;
3543;SDS011;1786;52.870;9.578;2023-02-21T03:08:10;22.20;;;18.77;;
3543;SDS011;1786;52.870;9.578;2023-02-21T03:10:43;26.97;;;19.30;;
3543;SDS011;1786;52.870;9.578;2023-02-21T03:13:23;27.40;;;20.27;;
3543;SDS011;1786;52.870;9.578;2023-02-21T03:18:24;28.23;;;19.10;;
3543;SDS011;1786;52.870;9.578;2023-02-21T03:20:53;25.40;;;17.50;;
3543;SDS011;1786;52.870;9.578;2023-02-21T03:23:21;23.53;;;17.97;;
3543;SDS011;1786;52.870;9.578;2023-02-21T03:25:50;22.93;;;17.53;;
3543;SDS011;1786;52.870;9.578;2023-02-21T03:28:17;25.37;;;17.97;;
3543;SDS011;1786;52.870;9.578;2023-02-21T03:30:46;25.97;;;16.73;;
3543;SDS011;1786;52.870;9.578;2023-02-21T03:33:14;29.40;;;18.03;;
3543;SDS011;1786;52.870;9.578;2023-02-21T03:35:40;23.53;;;16.40;;
3543;SDS011;1786;52.870;9.578;2023-02-21T03:38:08;24.30;;;18.23;;
3543;SDS011;1786;52.870;9.578;2023-02-21T03:40:35;22.80;;;17.47;;
3543;SDS011;1786;52.870;9.578;2023-02-21T03:43:03;23.67;;;18.60;;
3543;SDS011;1786;52.870;9.578;2023-02-21T03:45:40;31.90;;;18.90;;
3543;SDS011;1786;52.870;9.578;2023-02-21T03:48:11;23.97;;;18.20;;
3543;SDS011;1786;52.870;9.578;2023-02-21T03:50:49;26.40;;;19.13;;
3543;SDS011;1786;52.870;9.578;2023-02-21T03:53:16;31.90;;;18.23;;
3543;SDS011;1786;52.870;9.578;2023-02-21T03:55:44;26.10;;;19.03;;
3543;SDS011;1786;52.870;9.578;2023-02-21T03:58:16;27.47;;;19.17;;
3543;SDS011;1786;52.870;9.578;2023-02-21T04:00:43;31.20;;;20.10;;
3543;SDS011;1786;52.870;9.578;2023-02-21T04:03:10;27.50;;;19.23;;
3543;SDS011;1786;52.870;9.578;2023-02-21T04:05:39;32.30;;;20.57;;
3543;SDS011;1786;52.870;9.578;2023-02-21T04:08:08;32.67;;;22.40;;
3543;SDS011;1786;52.870;9.578;2023-02-21T04:10:36;25.57;;;19.10;;
3543;SDS011;1786;52.870;9.578;2023-02-21T04:13:17;23.77;;;19.10;;
3543;SDS011;1786;52.870;9.578;2023-02-21T04:15:46;26.83;;;20.50;;
3543;SDS011;1786;52.870;9.578;2023-02-21T04:18:12;20.50;;;16.53;;
3543;SDS011;1786;52.870;9.578;2023-02-21T04:20:40;31.93;;;19.53;;
3543;SDS011;1786;52.870;9.578;2023-02-21T04:23:10;29.43;;;19.40;;
3543;SDS011;1786;52.870;9.578;2023-02-21T04:25:36;26.33;;;20.10;;
3543;SDS011;1786;52.870;9.578;2023-02-21T04:28:09;29.20;;;20.23;;
3543;SDS011;1786;52.870;9.578;2023-02-21T04:30:36;22.30;;;16.67;;
3543;SDS011;1786;52.870;9.578;2023-02-21T04:33:03;25.23;;;18.73;;
3543;SDS011;1786;52.870;9.578;2023-02-21T04:35:30;26.20;;;19.67;;
3543;SDS011;1786;52.870;9.578;2023-02-21T04:38:01;29.00;;;19.67;;
3543;SDS011;1786;52.870;9.578;2023-02-21T04:40:27;28.50;;;21.10;;
3543;SDS011;1786;52.870;9.578;2023-02-21T04:42:54;28.37;;;20.70;;
3543;SDS011;1786;52.870;9.578;2023-02-21T04:45:21;24.20;;;19.93;;
3543;SDS011;1786;52.870;9.578;2023-02-21T04:47:47;31.17;;;22.10;;
3543;SDS011;1786;52.870;9.578;2023-02-21T04:50:14;24.60;;;20.80;;
3543;SDS011;1786;52.870;9.578;2023-02-21T04:52:40;22.73;;;20.00;;
3543;SDS011;1786;52.870;9.578;2023-02-21T04:55:07;25.83;;;20.97;;
3543;SDS011;1786;52.870;9.578;2023-02-21T04:57:34;25.57;;;19.83;;
3543;SDS011;1786;52.870;9.578;2023-02-21T05:00:00;23.53;;;18.67;;
3543;SDS011;1786;52.870;9.578;2023-02-21T05:02:27;24.80;;;19.63;;
3543;SDS011;1786;52.870;9.578;2023-02-21T05:04:53;25.83;;;20.43;;
3543;SDS011;1786;52.870;9.578;2023-02-21T05:07:20;26.57;;;21.50;;
3543;SDS011;1786;52.870;9.578;2023-02-21T05:09:46;29.17;;;22.63;;
3543;SDS011;1786;52.870;9.578;2023-02-21T05:12:13;26.03;;;22.13;;
3543;SDS011;1786;52.870;9.578;2023-02-21T05:14:39;25.83;;;21.20;;
3543;SDS011;1786;52.870;9.578;2023-02-21T05:17:06;24.63;;;21.33;;
3543;SDS011;1786;52.870;9.578;2023-02-21T05:19:33;30.73;;;22.33;;
3543;SDS011;1786;52.870;9.578;2023-02-21T05:22:00;25.83;;;19.63;;
3543;SDS011;1786;52.870;9.578;2023-02-21T05:24:27;28.03;;;21.87;;
3543;SDS011;1786;52.870;9.578;2023-02-21T05:26:54;28.90;;;21.50;;
3543;SDS011;1786;52.870;9.578;2023-02-21T05:29:21;26.20;;;19.87;;
3543;SDS011;1786;52.870;9.578;2023-02-21T05:31:48;22.10;;;17.70;;
3543;SDS011;1786;52.870;9.578;2023-02-21T05:34:15;20.50;;;15.77;;
3543;SDS011;1786;52.870;9.578;2023-02-21T05:36:42;21.23;;;14.33;;
3543;SDS011;1786;52.870;9.578;2023-02-21T05:39:09;18.77;;;15.30;;
3543;SDS011;1786;52.870;9.578;2023-02-21T05:41:35;17.40;;;14.47;;
3543;SDS011;1786;52.870;9.578;2023-02-21T05:44:02;18.93;;;14.53;;
3543;SDS011;1786;52.870;9.578;2023-02-21T05:46:30;16.10;;;13.47;;
3543;SDS011;1786;52.870;9.578;2023-02-21T05:48:57;12.73;;;11.00;;
3543;SDS011;1786;52.870;9.578;2023-02-21T05:51:23;15.37;;;13.33;;
3543;SDS011;1786;52.870;9.578;2023-02-21T05:53:50;13.33;;;11.97;;
3543;SDS011;1786;52.870;9.578;2023-02-21T05:56:16;12.40;;;11.00;;
3543;SDS011;1786;52.870;9.578;2023-02-21T05:58:43;15.70;;;12.03;;
3543;SDS011;1786;52.870;9.578;2023-02-21T06:01:10;13.10;;;11.53;;
3543;SDS011;1786;52.870;9.578;2023-02-21T06:03:38;15.00;;;13.10;;
3543;SDS011;1786;52.870;9.578;2023-02-21T06:06:05;14.33;;;12.83;;
3543;SDS011;1786;52.870;9.578;2023-02-21T06:08:31;22.20;;;12.97;;
3543;SDS011;1786;52.870;9.578;2023-02-21T06:10:57;23.63;;;12.73;;
3543;SDS011;1786;52.870;9.578;2023-02-21T06:13:24;13.90;;;11.57;;
3543;SDS011;1786;52.870;9.578;2023-02-21T06:15:50;11.97;;;10.73;;
3543;SDS011;1786;52.870;9.578;2023-02-21T06:18:17;13.27;;;11.90;;
3543;SDS011;1786;52.870;9.578;2023-02-21T06:20:44;10.97;;;9.83;;
3543;SDS011;1786;52.870;9.578;2023-02-21T06:23:10;16.13;;;10.77;;
3543;SDS011;1786;52.870;9.578;2023-02-21T06:25:37;12.03;;;10.83;;
3543;SDS011;1786;52.870;9.578;2023-02-21T06:28:04;16.43;;;10.90;;
3543;SDS011;1786;52.870;9.578;2023-02-21T06:30:30;12.50;;;10.10;;
3543;SDS011;1786;52.870;9.578;2023-02-21T06:32:57;11.57;;;10.37;;
3543;SDS011;1786;52.870;9.578;2023-02-21T06:35:23;15.57;;;11.20;;
3543;SDS011;1786;52.870;9.578;2023-02-21T06:37:49;17.50;;;12.80;;
3543;SDS011;1786;52.870;9.578;2023-02-21T06:40:16;16.73;;;12.33;;
3543;SDS011;1786;52.870;9.578;2023-02-21T06:42:42;15.20;;;11.90;;
3543;SDS011;1786;52.870;9.578;2023-02-21T06:45:09;12.80;;;10.87;;
3543;SDS011;1786;52.870;9.578;2023-02-21T06:47:35;14.20;;;10.63;;
3543;SDS011;1786;52.870;9.578;2023-02-21T06:50:02;13.27;;;9.47;;
3543;SDS011;1786;52.870;9.578;2023-02-21T06:52:29;12.73;;;11.40;;
3543;SDS011;1786;52.870;9.578;2023-02-21T06:54:56;16.67;;;11.33;;
3543;SDS011;1786;52.870;9.578;2023-02-21T06:57:22;16.47;;;11.10;;
3543;SDS011;1786;52.870;9.578;2023-02-21T06:59:49;12.77;;;11.47;;
3543;SDS011;1786;52.870;9.578;2023-02-21T07:02:17;14.13;;;11.73;;
3543;SDS011;1786;52.870;9.578;2023-02-21T07:04:47;13.70;;;11.70;;
3543;SDS011;1786;52.870;9.578;2023-02-21T07:07:14;14.53;;;11.37;;
3543;SDS011;1786;52.870;9.578;2023-02-21T07:09:40;14.20;;;11.77;;
3543;SDS011;1786;52.870;9.578;2023-02-21T07:12:07;23.37;;;12.43;;
3543;SDS011;1786;52.870;9.578;2023-02-21T07:14:34;13.80;;;12.30;;
3543;SDS011;1786;52.870;9.578;2023-02-21T07:17:00;19.40;;;15.20;;
3543;SDS011;1786;52.870;9.578;2023-02-21T07:19:27;23.53;;;14.63;;
3543;SDS011;1786;52.870;9.578;2023-02-21T07:21:53;17.60;;;13.40;;
3543;SDS011;1786;52.870;9.578;2023-02-21T07:24:19;17.70;;;13.60;;
3543;SDS011;1786;52.870;9.578;2023-02-21T07:26:46;18.10;;;12.63;;
3543;SDS011;1786;52.870;9.578;2023-02-21T07:29:13;16.70;;;12.57;;
3543;SDS011;1786;52.870;9.578;2023-02-21T07:31:40;18.60;;;11.57;;
3543;SDS011;1786;52.870;9.578;2023-02-21T07:34:06;16.17;;;12.70;;
3543;SDS011;1786;52.870;9.578;2023-02-21T07:36:35;21.60;;;12.43;;
3543;SDS011;1786;52.870;9.578;2023-02-21T07:39:05;21.13;;;12.27;;
3543;SDS011;1786;52.870;9.578;2023-02-21T07:41:31;23.03;;;13.60;;
3543;SDS011;1786;52.870;9.578;2023-02-21T07:43:58;22.53;;;13.63;;
3543;SDS011;1786;52.870;9.578;2023-02-21T07:46:25;22.10;;;13.23;;
3543;SDS011;1786;52.870;9.578;2023-02-21T07:48:52;18.23;;;14.00;;
3543;SDS011;1786;52.870;9.578;2023-02-21T07:51:19;16.37;;;14.10;;
3543;SDS011;1786;52.870;9.578;2023-02-21T07:53:46;21.37;;;14.63;;
3543;SDS011;1786;52.870;9.578;2023-02-21T07:56:12;22.10;;;13.80;;
3543;SDS011;1786;52.870;9.578;2023-02-21T07:58:39;21.90;;;14.20;;
3543;SDS011;1786;52.870;9.578;2023-02-21T08:01:05;24.90;;;14.90;;
3543;SDS011;1786;52.870;9.578;2023-02-21T08:03:32;23.60;;;14.03;;
3543;SDS011;1786;52.870;9.578;2023-02-21T08:05:59;26.27;;;14.70;;
3543;SDS011;1786;52.870;9.578;2023-02-21T08:08:25;29.60;;;15.23;;
3543;SDS011;1786;52.870;9.578;2023-02-21T08:10:51;25.37;;;15.17;;
3543;SDS011;1786;52.870;9.578;2023-02-21T08:13:18;29.97;;;15.23;;
3543;SDS011;1786;52.870;9.578;2023-02-21T08:15:44;22.00;;;14.10;;
3543;SDS011;1786;52.870;9.578;2023-02-21T08:18:18;31.57;;;13.83;;
3543;SDS011;1786;52.870;9.578;2023-02-21T08:20:46;25.30;;;13.77;;
3543;SDS011;1786;52.870;9.578;2023-02-21T08:23:13;21.93;;;14.50;;
3543;SDS011;1786;52.870;9.578;2023-02-21T08:25:39;25.53;;;14.30;;
3543;SDS011;1786;52.870;9.578;2023-02-21T08:28:06;24.97;;;13.40;;
3543;SDS011;1786;52.870;9.578;2023-02-21T08:30:33;17.77;;;13.73;;
3543;SDS011;1786;52.870;9.578;2023-02-21T08:32:59;23.63;;;14.70;;
3543;SDS011;1786;52.870;9.578;2023-02-21T08:35:25;24.13;;;14.13;;
3543;SDS011;1786;52.870;9.578;2023-02-21T08:37:52;24.87;;;13.90;;
3543;SDS011;1786;52.870;9.578;2023-02-21T08:40:22;21.57;;;13.90;;
3543;SDS011;1786;52.870;9.578;2023-02-21T08:42:49;24.60;;;13.47;;
3543;SDS011;1786;52.870;9.578;2023-02-21T08:45:17;27.33;;;13.60;;
3543;SDS011;1786;52.870;9.578;2023-02-21T08:47:45;28.77;;;14.30;;
3543;SDS011;1786;52.870;9.578;2023-02-21T08:50:12;28.30;;;15.20;;
3543;SDS011;1786;52.870;9.578;2023-02-21T08:52:38;19.80;;;13.17;;
3543;SDS011;1786;52.870;9.578;2023-02-21T08:55:06;25.17;;;14.93;;
3543;SDS011;1786;52.870;9.578;2023-02-21T08:57:33;22.87;;;12.93;;
3543;SDS011;1786;52.870;9.578;2023-02-21T09:00:00;25.30;;;14.10;;
3543;SDS011;1786;52.870;9.578;2023-02-21T09:02:26;25.17;;;15.10;;
3543;SDS011;1786;52.870;9.578;2023-02-21T09:04:57;20.20;;;14.40;;
3543;SDS011;1786;52.870;9.578;2023-02-21T09:07:25;28.87;;;14.27;;
3543;SDS011;1786;52.870;9.578;2023-02-21T09:09:53;23.53;;;13.60;;
3543;SDS011;1786;52.870;9.578;2023-02-21T09:12:20;24.43;;;14.17;;
3543;SDS011;1786;52.870;9.578;2023-02-21T09:14:46;20.93;;;14.17;;
3543;SDS011;1786;52.870;9.578;2023-02-21T09:17:13;20.77;;;15.10;;
3543;SDS011;1786;52.870;9.578;2023-02-21T09:19:39;25.37;;;14.93;;
3543;SDS011;1786;52.870;9.578;2023-02-21T09:22:07;20.53;;;15.43;;
3543;SDS011;1786;52.870;9.578;2023-02-21T09:24:34;31.73;;;18.50;;
3543;SDS011;1786;52.870;9.578;2023-02-21T09:27:00;25.90;;;16.10;;
3543;SDS011;1786;52.870;9.578;2023-02-21T09:29:33;31.30;;;18.37;;
3543;SDS011;1786;52.870;9.578;2023-02-21T09:32:12;22.90;;;15.27;;
3543;SDS011;1786;52.870;9.578;2023-02-21T09:34:38;29.60;;;16.67;;
3543;SDS011;1786;52.870;9.578;2023-02-21T09:37:05;21.57;;;15.77;;
3543;SDS011;1786;52.870;9.578;2023-02-21T09:39:31;26.03;;;15.17;;
3543;SDS011;1786;52.870;9.578;2023-02-21T09:41:58;24.97;;;15.60;;
3543;SDS011;1786;52.870;9.578;2023-02-21T09:44:25;29.30;;;15.43;;
3543;SDS011;1786;52.870;9.578;2023-02-21T09:47:03;20.80;;;13.87;;
3543;SDS011;1786;52.870;9.578;2023-02-21T09:49:32;19.80;;;15.10;;
3543;SDS011;1786;52.870;9.578;2023-02-21T09:51:59;22.30;;;14.93;;
3543;SDS011;1786;52.870;9.578;2023-02-21T09:54:34;28.90;;;16.17;;
3543;SDS011;1786;52.870;9.578;2023-02-21T09:57:01;19.87;;;14.43;;
3543;SDS011;1786;52.870;9.578;2023-02-21T09:59:28;23.77;;;14.23;;
3543;SDS011;1786;52.870;9.578;2023-02-21T10:09:37;22.23;;;16.27;;
3543;SDS011;1786;52.870;9.578;2023-02-21T10:19:50;27.93;;;15.83;;
3543;SDS011;1786;52.870;9.578;2023-02-21T10:22:19;29.00;;;15.43;;
3543;SDS011;1786;52.870;9.578;2023-02-21T10:24:46;23.23;;;15.40;;
3543;SDS011;1786;52.870;9.578;2023-02-21T10:27:16;22.33;;;16.40;;
3543;SDS011;1786;52.870;9.578;2023-02-21T10:29:50;29.60;;;15.07;;
3543;SDS011;1786;52.870;9.578;2023-02-21T10:32:17;25.83;;;15.20;;
3543;SDS011;1786;52.870;9.578;2023-02-21T10:34:44;20.57;;;14.73;;
3543;SDS011;1786;52.870;9.578;2023-02-21T10:45:02;24.57;;;14.90;;
3543;SDS011;1786;52.870;9.578;2023-02-21T10:47:52;25.30;;;15.83;;
3543;SDS011;1786;52.870;9.578;2023-02-21T10:50:16;26.57;;;14.77;;
3543;SDS011;1786;52.870;9.578;2023-02-21T10:53:01;25.20;;;16.10;;
3543;SDS011;1786;52.870;9.578;2023-02-21T10:55:28;33.87;;;17.43;;
3543;SDS011;1786;52.870;9.578;2023-02-21T10:58:05;38.70;;;19.93;;
3543;SDS011;1786;52.870;9.578;2023-02-21T11:00:34;27.90;;;17.67;;
3543;SDS011;1786;52.870;9.578;2023-02-21T11:05:51;23.97;;;15.83;;
3543;SDS011;1786;52.870;9.578;2023-02-21T11:08:39;22.60;;;15.87;;
3543;SDS011;1786;52.870;9.578;2023-02-21T11:11:06;27.17;;;18.53;;
3543;SDS011;1786;52.870;9.578;2023-02-21T11:13:33;27.43;;;17.13;;
3543;SDS011;1786;52.870;9.578;2023-02-21T11:18:37;24.97;;;17.37;;
3543;SDS011;1786;52.870;9.578;2023-02-21T11:21:13;31.13;;;18.07;;
3543;SDS011;1786;52.870;9.578;2023-02-21T11:23:53;24.83;;;15.20;;
3543;SDS011;1786;52.870;9.578;2023-02-21T11:26:23;24.37;;;16.60;;
3543;SDS011;1786;52.870;9.578;2023-02-21T11:28:49;27.03;;;17.13;;
3543;SDS011;1786;52.870;9.578;2023-02-21T11:31:27;29.30;;;15.70;;
3543;SDS011;1786;52.870;9.578;2023-02-21T11:33:58;22.70;;;14.73;;
3543;SDS011;1786;52.870;9.578;2023-02-21T11:36:29;18.97;;;14.37;;
3543;SDS011;1786;52.870;9.578;2023-02-21T11:39:04;19.63;;;13.53;;
3543;SDS011;1786;52.870;9.578;2023-02-21T11:41:35;18.90;;;14.53;;
3543;SDS011;1786;52.870;9.578;2023-02-21T11:44:17;22.87;;;15.40;;
3543;SDS011;1786;52.870;9.578;2023-02-21T11:46:47;24.27;;;15.47;;
3543;SDS011;1786;52.870;9.578;2023-02-21T11:49:28;18.90;;;13.40;;
3543;SDS011;1786;52.870;9.578;2023-02-21T11:52:02;20.50;;;13.70;;
3543;SDS011;1786;52.870;9.578;2023-02-21T11:54:31;19.27;;;14.70;;
3543;SDS011;1786;52.870;9.578;2023-02-21T11:57:16;26.53;;;14.93;;
3543;SDS011;1786;52.870;9.578;2023-02-21T12:02:18;19.43;;;13.50;;
3543;SDS011;1786;52.870;9.578;2023-02-21T12:19:52;18.53;;;12.03;;
3543;SDS011;1786;52.870;9.578;2023-02-21T12:25:05;21.93;;;11.93;;
3543;SDS011;1786;52.870;9.578;2023-02-21T12:45:01;11.63;;;10.47;;
3543;SDS011;1786;52.870;9.578;2023-02-21T12:47:37;16.77;;;11.40;;
3543;SDS011;1786;52.870;9.578;2023-02-21T12:50:13;24.73;;;14.03;;
3543;SDS011;1786;52.870;9.578;2023-02-21T12:55:19;25.40;;;11.50;;
3543;SDS011;1786;52.870;9.578;2023-02-21T13:00:14;17.00;;;11.97;;
3543;SDS011;1786;52.870;9.578;2023-02-21T13:05:32;23.07;;;12.50;;
3543;SDS011;1786;52.870;9.578;2023-02-21T13:08:04;16.60;;;11.50;;
3543;SDS011;1786;52.870;9.578;2023-02-21T13:10:43;17.87;;;11.03;;
3543;SDS011;1786;52.870;9.578;2023-02-21T13:13:12;15.17;;;12.20;;
3543;SDS011;1786;52.870;9.578;2023-02-21T13:15:41;19.17;;;12.83;;
3543;SDS011;1786;52.870;9.578;2023-02-21T13:18:09;16.07;;;11.60;;
3543;SDS011;1786;52.870;9.578;2023-02-21T13:20:42;21.13;;;12.00;;
3543;SDS011;1786;52.870;9.578;2023-02-21T13:29:02;17.90;;;12.10;;
3543;SDS011;1786;52.870;9.578;2023-02-21T13:31:35;23.63;;;12.87;;
3543;SDS011;1786;52.870;9.578;2023-02-21T13:34:08;18.17;;;12.13;;
3543;SDS011;1786;52.870;9.578;2023-02-21T13:39:04;14.50;;;12.10;;
3543;SDS011;1786;52.870;9.578;2023-02-21T13:41:36;16.73;;;13.17;;
3543;SDS011;1786;52.870;9.578;2023-02-21T13:44:05;18.83;;;12.73;;
3543;SDS011;1786;52.870;9.578;2023-02-21T13:51:48;19.20;;;12.10;;
3543;SDS011;1786;52.870;9.578;2023-02-21T13:54:20;20.47;;;13.00;;
3543;SDS011;1786;52.870;9.578;2023-02-21T13:56:47;15.63;;;11.70;;
3543;SDS011;1786;52.870;9.578;2023-02-21T14:01:50;15.33;;;11.40;;
3543;SDS011;1786;52.870;9.578;2023-02-21T14:04:48;19.47;;;13.50;;
3543;SDS011;1786;52.870;9.578;2023-02-21T14:07:15;18.60;;;12.63;;
3543;SDS011;1786;52.870;9.578;2023-02-21T14:09:43;16.90;;;12.87;;
3543;SDS011;1786;52.870;9.578;2023-02-21T14:12:11;16.77;;;12.17;;
3543;SDS011;1786;52.870;9.578;2023-02-21T14:14:41;19.47;;;12.30;;
3543;SDS011;1786;52.870;9.578;2023-02-21T14:17:08;22.17;;;13.57;;
3543;SDS011;1786;52.870;9.578;2023-02-21T14:19:40;16.53;;;12.80;;
3543;SDS011;1786;52.870;9.578;2023-02-21T14:22:09;25.53;;;12.43;;
3543;SDS011;1786;52.870;9.578;2023-02-21T14:24:37;16.50;;;13.00;;
3543;SDS011;1786;52.870;9.578;2023-02-21T14:29:39;17.63;;;12.83;;
3543;SDS011;1786;52.870;9.578;2023-02-21T14:39:53;18.60;;;14.40;;
3543;SDS011;1786;52.870;9.578;2023-02-21T14:47:28;26.13;;;14.10;;
3543;SDS011;1786;52.870;9.578;2023-02-21T14:50:03;19.47;;;13.60;;
3543;SDS011;1786;52.870;9.578;2023-02-21T15:00:38;21.93;;;17.10;;
3543;SDS011;1786;52.870;9.578;2023-02-21T15:03:09;22.53;;;15.47;;
3543;SDS011;1786;52.870;9.578;2023-02-21T15:06:23;24.73;;;15.47;;
3543;SDS011;1786;52.870;9.578;2023-02-21T15:08:29;20.83;;;14.37;;
3543;SDS011;1786;52.870;9.578;2023-02-21T15:11:04;20.40;;;14.70;;
3543;SDS011;1786;52.870;9.578;2023-02-21T15:13:40;20.10;;;15.00;;
3543;SDS011;1786;52.870;9.578;2023-02-21T15:16:07;22.10;;;15.20;;
3543;SDS011;1786;52.870;9.578;2023-02-21T15:18:35;22.67;;;15.93;;
3543;SDS011;1786;52.870;9.578;2023-02-21T15:21:18;19.27;;;16.20;;
3543;SDS011;1786;52.870;9.578;2023-02-21T15:23:46;25.07;;;16.20;;
3543;SDS011;1786;52.870;9.578;2023-02-21T15:28:43;20.17;;;14.97;;
3543;SDS011;1786;52.870;9.578;2023-02-21T15:31:10;22.63;;;14.70;;
3543;SDS011;1786;52.870;9.578;2023-02-21T15:33:39;24.33;;;14.20;;
3543;SDS011;1786;52.870;9.578;2023-02-21T15:36:07;25.10;;;15.77;;
3543;SDS011;1786;52.870;9.578;2023-02-21T15:46:26;25.37;;;17.47;;
3543;SDS011;1786;52.870;9.578;2023-02-21T15:48:55;22.87;;;17.93;;
3543;SDS011;1786;52.870;9.578;2023-02-21T15:51:24;29.77;;;17.60;;
3543;SDS011;1786;52.870;9.578;2023-02-21T15:54:21;27.13;;;20.00;;
3543;SDS011;1786;52.870;9.578;2023-02-21T15:59:36;25.47;;;17.80;;
3543;SDS011;1786;52.870;9.578;2023-02-21T16:02:11;22.57;;;17.63;;
3543;SDS011;1786;52.870;9.578;2023-02-21T16:04:45;27.03;;;20.10;;
3543;SDS011;1786;52.870;9.578;2023-02-21T16:07:14;26.60;;;19.07;;
3543;SDS011;1786;52.870;9.578;2023-02-21T16:09:44;28.10;;;20.70;;
3543;SDS011;1786;52.870;9.578;2023-02-21T16:14:38;30.80;;;18.90;;
3543;SDS011;1786;52.870;9.578;2023-02-21T16:19:39;34.33;;;18.67;;
3543;SDS011;1786;52.870;9.578;2023-02-21T16:22:10;27.57;;;18.47;;
3543;SDS011;1786;52.870;9.578;2023-02-21T16:24:38;27.17;;;18.27;;
3543;SDS011;1786;52.870;9.578;2023-02-21T16:27:08;28.73;;;20.80;;
3543;SDS011;1786;52.870;9.578;2023-02-21T16:29:34;23.67;;;18.70;;
3543;SDS011;1786;52.870;9.578;2023-02-21T16:32:01;29.60;;;18.77;;
3543;SDS011;1786;52.870;9.578;2023-02-21T16:34:29;31.77;;;18.30;;
3543;SDS011;1786;52.870;9.578;2023-02-21T16:37:00;27.70;;;19.27;;
3543;SDS011;1786;52.870;9.578;2023-02-21T16:39:26;28.83;;;19.93;;
3543;SDS011;1786;52.870;9.578;2023-02-21T16:41:53;26.00;;;19.13;;
3543;SDS011;1786;52.870;9.578;2023-02-21T16:44:20;29.37;;;19.47;;
3543;SDS011;1786;52.870;9.578;2023-02-21T16:46:46;25.60;;;18.20;;
3543;SDS011;1786;52.870;9.578;2023-02-21T16:49:15;30.97;;;18.30;;
3543;SDS011;1786;52.870;9.578;2023-02-21T16:51:42;24.63;;;17.97;;
3543;SDS011;1786;52.870;9.578;2023-02-21T16:54:09;23.50;;;18.53;;
3543;SDS011;1786;52.870;9.578;2023-02-21T16:56:39;28.33;;;18.60;;
3543;SDS011;1786;52.870;9.578;2023-02-21T16:59:08;25.83;;;17.20;;
3543;SDS011;1786;52.870;9.578;2023-02-21T17:01:35;22.17;;;17.07;;
3543;SDS011;1786;52.870;9.578;2023-02-21T17:04:02;27.37;;;18.47;;
3543;SDS011;1786;52.870;9.578;2023-02-21T17:06:31;31.57;;;19.37;;
3543;SDS011;1786;52.870;9.578;2023-02-21T17:08:58;26.33;;;19.10;;
3543;SDS011;1786;52.870;9.578;2023-02-21T17:11:25;25.70;;;19.00;;
3543;SDS011;1786;52.870;9.578;2023-02-21T17:13:51;26.60;;;18.70;;
3543;SDS011;1786;52.870;9.578;2023-02-21T17:16:18;27.17;;;19.77;;
3543;SDS011;1786;52.870;9.578;2023-02-21T17:18:45;30.83;;;19.47;;
3543;SDS011;1786;52.870;9.578;2023-02-21T17:21:11;26.40;;;18.67;;
3543;SDS011;1786;52.870;9.578;2023-02-21T17:23:39;26.90;;;18.40;;
3543;SDS011;1786;52.870;9.578;2023-02-21T17:26:06;29.83;;;17.93;;
3543;SDS011;1786;52.870;9.578;2023-02-21T17:28:32;22.40;;;17.30;;
3543;SDS011;1786;52.870;9.578;2023-02-21T17:30:59;22.77;;;17.53;;
3543;SDS011;1786;52.870;9.578;2023-02-21T17:33:26;23.90;;;18.13;;
3543;SDS011;1786;52.870;9.578;2023-02-21T17:35:52;23.13;;;17.50;;
3543;SDS011;1786;52.870;9.578;2023-02-21T17:38:19;36.33;;;18.30;;
3543;SDS011;1786;52.870;9.578;2023-02-21T17:40:45;27.27;;;19.13;;
3543;SDS011;1786;52.870;9.578;2023-02-21T17:43:14;29.73;;;20.07;;
3543;SDS011;1786;52.870;9.578;2023-02-21T17:45:40;29.87;;;21.00;;
3543;SDS011;1786;52.870;9.578;2023-02-21T17:48:06;29.17;;;21.00;;
3543;SDS011;1786;52.870;9.578;2023-02-21T17:50:33;30.50;;;20.10;;
3543;SDS011;1786;52.870;9.578;2023-02-21T17:53:00;30.10;;;21.47;;
3543;SDS011;1786;52.870;9.578;2023-02-21T17:55:27;29.53;;;19.87;;